Latest Coastal Weather Observations for Merimbula

IDN60701

Issued at 2:51 am EST Saturday 23 September 2017 (issued every 10 minutes, with the page automatically refreshed every 10 minutes)

About coastal observations | Map of coastal stations | Coastal observations for NSW | Marine services | Other Formats
Station Details ID: 069147 Name: MERIMBULA AIRPORT AWS Lat: -36.91 Lon: 149.90 Height: 1.5 m
Data from the previous 72 hours. | See also: Recent months at Merimbula
Date/Time
EST
Temp
°C
Wind Pressure Rain since
9am
mm
Weather Cloud Vis
km
Sea
Height
m
Swell
Dir  Spd
kts
Gust
kts
hPa Trend Height
m
Period
s
Dir
23/02:30am 9.7 CALM 0 4 1006.2 - 0.0 - - 10 - - - -
23/02:00am 10.1 SSW 3 5 1006.6 - 0.0 - - 10 - - - -
23/01:30am 11.1 SW 4 5 1007.0 - 0.0 - - 10 - - - -
23/01:00am 11.7 SW 3 6 1007.4 - 0.0 - - 10 - - - -
23/12:30am 11.5 SW 4 6 1007.6 - 0.0 - - 10 - - - -
23/12:00am 11.0 SW 1 4 1007.9 - 0.0 - Mostly cloudy 10 - - - -
 
Date/Time
EST
Temp
°C
Wind Pressure Rain since
9am
mm
Weather Cloud Vis
km
Sea
Height
m
Swell
Dir  Spd
kts
Gust
kts
hPa Trend Height
m
Period
s
Dir
22/11:30pm 11.2 SSW 4 5 1008.2 - 0.0 - - 10 - - - -
22/11:00pm 10.5 CALM 0 3 1008.3 - 0.0 - - 10 - - - -
22/10:30pm 11.1 WNW 4 5 1008.6 - 0.0 - - 10 - - - -
22/10:00pm 12.2 SW 5 6 1008.7 - 0.0 - - 10 - - - -
22/09:30pm 12.7 NNW 2 4 1008.7 - 0.0 - - 10 - - - -
22/09:00pm 13.8 SSW 2 4 1008.9 - 0.0 - Mostly cloudy 10 - - - -
22/08:30pm 14.5 SSW 5 7 1008.9 - 0.0 - - 10 - - - -
22/08:00pm 14.4 NW 4 7 1008.8 - 0.0 - - 10 - - - -
22/07:30pm 14.3 NW 3 6 1008.8 - 0.0 - - 10 - - - -
22/07:00pm 14.3 CALM 0 0 1008.6 - 0.0 - - 10 - - - -
22/06:30pm 15.7 SSW 3 7 1008.3 - 0.0 - - 10 - - - -
22/06:00pm 17.2 S 5 6 1007.8 - 0.0 - - 10 - - - -
22/05:30pm 19.7 NNE 3 6 1007.6 - 0.0 - - 10 - - - -
22/05:00pm 21.1 NE 6 10 1007.5 - 0.0 - - 10 - - - -
22/04:30pm 20.2 ESE 5 12 1007.5 - 0.0 - - 10 - - - -
22/04:00pm 23.1 ENE 7 11 1007.2 - 0.0 - - 10 - - - -
22/03:30pm 20.9 ESE 8 12 1007.3 - 0.0 - - 10 - - - -
22/03:00pm 20.8 E 6 8 1007.6 - 0.0 - Mostly clear 10 - - - -
22/02:30pm 20.0 ESE 3 5 1007.9 - 0.0 - - 10 - - - -
22/02:00pm 19.8 ESE 3 5 1008.2 - 0.0 - - 10 - - - -
22/01:30pm 18.8 ESE 4 5 1008.7 - 0.0 - - 10 - - - -
22/01:00pm 18.5 ESE 4 6 1008.9 - 0.0 - - 10 - - - -
22/12:30pm 18.4 CALM 0 0 1009.3 - 0.0 - - 10 - - - -
22/12:00pm 18.1 SE 4 6 1009.8 - 0.0 - Mostly clear 10 - - - -
22/11:30am 18.1 ESE 5 7 1010.1 - 0.0 - - 10 - - - -
22/11:00am 17.9 ESE 5 8 1010.4 - 0.0 - - 10 - - - -
22/10:30am 18.4 ESE 5 8 1010.7 - 0.0 - - 10 - - - -
22/10:00am 18.4 SE 7 11 1011.0 - 0.0 - - 10 - - - -
22/09:30am 17.2 E 4 6 1011.4 - 0.0 - - 10 - - - -
22/09:00am 16.8 E 4 7 1011.6 - 0.0 - Partly cloudy 10 - - - -
22/08:30am 15.0 CALM 0 0 1011.5 - 0.0 - - 10 - - - -
22/08:00am 13.2 CALM 0 0 1011.5 - 0.0 - - 10 - - - -
22/07:30am 11.9 CALM 0 0 1011.5 - 0.0 - - 10 - - - -
22/07:00am 11.0 CALM 0 0 1011.2 - 0.0 - - 10 - - - -
22/06:30am 10.2 CALM 0 0 1011.0 - 0.0 - - 10 - - - -
22/06:00am 9.8 CALM 0 0 1010.8 - 0.0 - Cloudy 10 - - - -
22/05:30am 10.0 CALM 0 0 1010.7 - 0.0 - - 10 - - - -
22/05:00am 10.8 SSW 5 7 1010.6 - 0.0 - - 10 - - - -
22/04:30am 10.8 W 3 4 1010.2 - 0.0 - - 10 - - - -
22/04:00am 10.7 WNW 1 5 1010.2 - 0.0 - - 10 - - - -
22/03:30am 10.4 CALM 0 0 1010.4 - 0.0 - - 10 - - - -
22/03:00am 10.7 CALM 0 0 1010.3 - 0.0 - Cloudy 10 - - - -
22/02:30am 11.3 CALM 0 0 1010.5 - 0.0 - - 10 - - - -
22/02:00am 11.7 SW 4 5 1011.0 - 0.0 - - 10 - - - -
22/01:30am 11.7 CALM 0 0 1011.3 - 0.0 - - 10 - - - -
22/01:00am 12.0 CALM 0 0 1011.3 - 0.0 - - 10 - - - -
22/12:30am 12.0 SSW 4 6 1011.3 - 0.0 - - 10 - - - -
22/12:00am 12.1 NW 2 7 1011.1 - 0.0 - Cloudy 10 - - - -
 
Date/Time
EST
Temp
°C
Wind Pressure Rain since
9am
mm
Weather Cloud Vis
km
Sea
Height
m
Swell
Dir  Spd
kts
Gust
kts
hPa Trend Height
m
Period
s
Dir
21/11:30pm 11.9 CALM 0 1 1011.3 - 0.0 - - 10 - - - -
21/11:00pm 12.2 WNW 4 5 1011.5 - 0.0 - - 10 - - - -
21/10:30pm 11.7 CALM 0 0 1011.6 - 0.0 - - 10 - - - -
21/10:00pm 12.5 WNW 1 4 1011.7 - 0.0 - - 10 - - - -
21/09:30pm 12.4 W 1 4 1011.4 - 0.0 - - 10 - - - -
21/09:00pm 12.4 CALM 0 0 1011.5 - 0.0 - Cloudy 10 - - - -
21/08:30pm 13.2 SSW 5 6 1011.4 - 0.0 - - 10 - - - -
21/08:00pm 13.6 ESE 1 5 1011.3 - 0.0 - - 10 - - - -
21/07:30pm 14.3 CALM 0 0 1011.1 - 0.0 - - 10 - - - -
21/07:00pm 15.9 NNW 6 11 1010.5 - 0.0 - - 10 - - - -
21/06:30pm 15.7 N 3 7 1010.2 - 0.0 - - 10 - - - -
21/06:00pm 15.9 N 4 7 1010.5 - 0.0 - Cloudy 10 - - - -
21/05:30pm 15.9 NE 1 5 1010.3 - 0.0 - - 10 - - - -
21/05:00pm 16.3 NE 5 8 1010.4 - 0.0 - - 10 - - - -
21/04:30pm 16.7 NE 7 11 1010.6 - 0.0 - - 10 - - - -
21/04:00pm 17.3 NE 7 11 1010.7 - 0.0 - - 10 - - - -
21/03:30pm 17.4 NE 7 10 1010.8 - 0.0 - - 10 - - - -
21/03:00pm 16.9 NE 7 11 1011.1 - 0.0 - - 10 - - - -
21/02:30pm 16.8 NE 8 14 1011.1 - 0.0 - - 10 - - - -
21/02:00pm 16.6 NE 8 13 1011.5 - 0.0 - - 10 - - - -
21/01:30pm 16.3 NE 9 14 1011.7 - 0.0 - - 10 - - - -
21/01:00pm 17.5 NE 9 14 1012.3 - 0.0 - - 10 - - - -
21/12:30pm 16.6 NE 11 15 1012.8 - 0.0 - - 10 - - - -
21/12:00pm 16.6 ENE 9 13 1013.2 - 0.0 - Mostly clear 10 - - - -
21/11:30am 17.4 ENE 10 13 1013.8 - 0.0 - - 10 - - - -
21/11:00am 17.5 ENE 10 14 1014.2 - 0.0 - - 10 - - - -
21/10:30am 17.3 E 8 13 1014.6 - 0.0 - - 10 - - - -
21/10:00am 16.7 ESE 6 9 1014.9 - 0.0 - - 10 - - - -
21/09:30am 15.1 E 5 7 1015.2 - 0.0 - - 10 - - - -
21/09:00am 14.4 CALM 0 0 1015.4 - 0.0 - Mostly clear 10 - - - -
21/08:30am 12.6 CALM 0 0 1015.6 - 0.0 - - 10 - - - -
21/08:00am 9.5 CALM 0 0 1015.9 - 0.0 - - 10 - - - -
21/07:30am 7.3 SSW 2 5 1016.1 - 0.0 - - 10 - - - -
21/07:00am 5.3 CALM 0 1 1016.1 - 0.0 - - 10 - - - -
21/06:30am 4.1 SW 4 5 1016.1 - 0.0 - - 10 - - - -
21/06:00am 3.8 SSW 5 6 1015.9 - 0.0 - - 10 - - - -
21/05:30am 3.9 SSW 5 5 1015.7 - 0.0 - - 10 - - - -
21/05:00am 3.7 SW 4 5 1015.4 - 0.0 - - 10 - - - -
21/04:30am 3.8 SW 4 4 1015.3 - 0.0 - - 10 - - - -
21/04:00am 4.1 SSW 5 6 1015.4 - 0.0 - - 10 - - - -
21/03:30am 4.1 SSW 2 4 1015.5 - 0.0 - - 10 - - - -
21/03:00am 4.0 S 1 3 1015.5 - 0.0 - - 10 - - - -
21/02:30am 4.8 SW 4 5 1015.9 - 0.0 - - 10 - - - -
21/02:00am 5.0 SSW 5 6 1016.0 - 0.0 - - 10 - - - -
21/01:30am 5.2 SW 4 5 1016.4 - 0.0 - - 10 - - - -
21/01:00am 5.1 SSW 3 4 1016.6 - 0.0 - - 10 - - - -
21/12:30am 5.5 SSW 4 6 1016.9 - 0.0 - - 10 - - - -
21/12:00am 5.4 SSW 4 4 1017.0 - 0.0 - - 10 - - - -
 
Date/Time
EST
Temp
°C
Wind Pressure Rain since
9am
mm
Weather Cloud Vis
km
Sea
Height
m
Swell
Dir  Spd
kts
Gust
kts
hPa Trend Height
m
Period
s
Dir
20/11:30pm 5.6 CALM 0 0 1017.2 - 0.0 - - 10 - - - -
20/11:00pm 6.3 WSW 3 5 1017.4 - 0.0 - - 10 - - - -
20/10:30pm 6.5 SW 4 5 1017.6 - 0.0 - - 10 - - - -
20/10:00pm 7.2 WNW 4 6 1017.9 - 0.0 - - 10 - - - -
20/09:30pm 6.5 CALM 0 4 1018.0 - 0.0 - - 10 - - - -
20/09:00pm 7.2 SW 2 4 1018.3 - 0.0 - - 10 - - - -
20/08:30pm 8.3 CALM 0 4 1018.3 - 0.0 - - 10 - - - -
20/08:00pm 9.4 WNW 5 8 1018.4 - 0.0 - - 10 - - - -
20/07:30pm 9.0 NW 1 5 1018.3 - 0.0 - - 10 - - - -
20/07:00pm 8.8 CALM 0 0 1018.4 - 0.0 - - 10 - - - -
20/06:30pm 10.0 CALM 0 0 1018.2 - 0.0 - - 10 - - - -
20/06:00pm 11.7 CALM 0 0 1018.1 - 0.0 - - 10 - - - -
20/05:30pm 13.3 ENE 4 5 1017.8 - 0.0 - - 10 - - - -
20/05:00pm 13.9 E 5 7 1017.5 - 0.0 - - 10 - - - -
20/04:30pm 14.7 E 5 8 1017.4 - 0.0 - - 10 - - - -
20/04:00pm 15.1 E 5 8 1017.5 - 0.0 - - 10 - - - -
20/03:30pm 15.1 ESE 6 10 1017.5 - 0.0 - - 10 - - - -
20/03:00pm 15.7 E 6 10 1017.6 - 0.0 - - 10 - - - -
20/02:30pm 15.8 E 7 11 1017.5 - 0.0 - - 10 - - - -
20/02:00pm 16.3 E 8 11 1017.5 - 0.0 - - 10 - - - -
20/01:30pm 15.6 E 7 11 1017.5 - 0.0 - - 10 - - - -
20/01:00pm 16.7 E 8 12 1017.8 - 0.0 - - 10 - - - -
20/12:30pm 16.0 E 9 12 1018.3 - 0.0 - - 10 - - - -
20/12:00pm 16.4 E 8 13 1018.8 - 0.0 - - 10 - - - -
20/11:30am 16.7 NE 8 11 1019.1 - 0.0 - - 10 - - - -
20/11:00am 16.6 W 5 12 1019.4 - 0.0 - - 10 - - - -
20/10:30am 15.4 SW 7 10 1020.1 - 0.0 - - 10 - - - -
20/10:00am 14.8 W 7 11 1020.5 - 0.0 - - 10 - - - -
20/09:30am 14.4 W 7 13 1021.0 - 0.0 - - 10 - - - -
20/09:00am 14.0 W 7 12 1021.4 - 0.0 - - 10 - - - -
20/08:30am 13.1 W 6 11 1021.8 - 0.0 - - 10 - - - -
20/08:00am 12.3 W 7 12 1021.7 - 0.0 - - 10 - - - -
20/07:30am 10.2 WNW 5 7 1021.6 - 0.0 - - 10 - - - -
20/07:00am 7.1 NW 4 7 1021.7 - 0.0 - - 10 - - - -
20/06:30am 5.2 SW 5 6 1021.5 - 0.0 - - 10 - - - -
20/06:00am 5.7 NW 5 7 1020.9 - 0.0 - - 10 - - - -
20/05:30am 5.6 NNW 7 8 1020.7 - 0.0 - - 10 - - - -
20/05:00am 6.5 NW 6 8 1020.5 - 0.0 - - 10 - - - -
20/04:30am 7.3 NW 7 10 1020.3 - 0.0 - Partly cloudy 10 - - - -
20/04:00am 6.5 NNW 8 10 1020.4 - 0.0 - - 10 - - - -
20/03:30am 7.1 NW 8 10 1020.4 - 0.0 - - 10 - - - -
20/03:00am 7.4 NW 6 9 1020.4 - 0.0 - - 10 - - - -

Other Formats:

Comma delimited format used in spreadsheet applications
http://www.bom.gov.au/fwo/IDN60701/IDN60701.95929.axf

JavaScript Object Notation format (JSON) in row-major order
http://www.bom.gov.au/fwo/IDN60701/IDN60701.95929.json